createdAt,value
2023-04-04T00:00:41.635Z,72.90
2023-04-04T00:03:08.913Z,72.40
2023-04-04T00:05:36.204Z,71.60
2023-04-04T00:08:04.416Z,70.30
2023-04-04T00:10:31.493Z,70.20
2023-04-04T00:12:59.149Z,69.90
2023-04-04T00:15:26.441Z,70.00
2023-04-04T00:17:53.446Z,69.60
2023-04-04T00:20:20.400Z,69.40
2023-04-04T00:22:47.389Z,69.40
2023-04-04T00:25:14.508Z,68.80
2023-04-04T00:27:41.451Z,68.10
2023-04-04T00:30:08.921Z,68.40
2023-04-04T00:32:36.156Z,68.80
2023-04-04T00:35:03.920Z,69.00
2023-04-04T00:37:31.049Z,68.70
2023-04-04T00:39:58.026Z,68.20
2023-04-04T00:42:25.293Z,68.20
2023-04-04T00:44:52.785Z,68.20
2023-04-04T00:47:24.632Z,68.20
2023-04-04T00:49:52.554Z,68.30
2023-04-04T00:52:19.615Z,67.90
2023-04-04T00:54:46.794Z,68.00
2023-04-04T00:57:14.085Z,68.00
2023-04-04T00:59:41.586Z,67.60
2023-04-04T01:02:09.010Z,67.90
2023-04-04T01:04:36.597Z,67.50
2023-04-04T01:07:04.436Z,67.70
2023-04-04T01:09:31.854Z,68.00
2023-04-04T01:11:59.367Z,68.20
2023-04-04T01:14:28.205Z,68.60
2023-04-04T01:16:55.866Z,68.80
2023-04-04T01:19:36.512Z,68.90
2023-04-04T01:22:09.514Z,68.80
2023-04-04T01:24:38.216Z,69.00
2023-04-04T01:27:06.522Z,69.20
2023-04-04T01:29:39.105Z,69.10
2023-04-04T01:32:19.501Z,69.10
2023-04-04T01:35:09.690Z,69.20
2023-04-04T01:38:11.170Z,69.10
2023-04-04T01:40:41.938Z,69.00
2023-04-04T01:43:09.922Z,69.20
2023-04-04T01:45:39.558Z,69.00
2023-04-04T01:48:11.167Z,69.00
2023-04-04T01:50:39.262Z,69.40
2023-04-04T01:53:07.293Z,69.50
2023-04-04T01:55:34.322Z,68.80
2023-04-04T01:58:02.021Z,68.70
2023-04-04T02:00:30.779Z,69.10
2023-04-04T02:02:57.615Z,69.20
2023-04-04T02:05:24.592Z,69.30
2023-04-04T02:07:51.807Z,69.30
2023-04-04T02:10:29.923Z,69.00
2023-04-04T02:12:58.148Z,68.90
2023-04-04T02:15:25.553Z,69.00
2023-04-04T02:17:52.714Z,69.10
2023-04-04T02:20:20.258Z,69.30
2023-04-04T02:22:55.231Z,69.70
2023-04-04T02:25:23.723Z,70.10
2023-04-04T02:27:50.658Z,70.40
2023-04-04T02:30:17.814Z,70.60
2023-04-04T02:32:44.882Z,70.50
2023-04-04T02:35:17.454Z,70.50
2023-04-04T02:37:46.380Z,70.30
2023-04-04T02:40:20.152Z,69.90
2023-04-04T02:42:47.233Z,69.80
2023-04-04T02:45:14.854Z,69.00
2023-04-04T02:47:53.074Z,68.10
2023-04-04T02:50:25.732Z,68.20
2023-04-04T02:53:04.559Z,67.60
2023-04-04T02:55:34.563Z,67.10
2023-04-04T02:58:04.308Z,67.00
2023-04-04T03:00:31.420Z,67.10
2023-04-04T03:02:58.574Z,67.20
2023-04-04T03:05:34.200Z,67.30
2023-04-04T03:08:02.208Z,67.10
2023-04-04T03:10:32.626Z,66.80
2023-04-04T03:12:59.680Z,66.70
2023-04-04T03:15:28.981Z,66.70
2023-04-04T03:17:56.873Z,66.80
2023-04-04T03:20:27.249Z,66.80
2023-04-04T03:22:54.398Z,67.00
2023-04-04T03:25:21.369Z,66.80
2023-04-04T03:27:48.341Z,66.80
2023-04-04T03:30:22.100Z,67.00
2023-04-04T03:32:51.001Z,67.10
2023-04-04T03:35:17.986Z,67.00
2023-04-04T03:37:45.018Z,67.90
2023-04-04T03:40:12.572Z,67.20
2023-04-04T03:42:39.650Z,67.10
2023-04-04T03:45:10.669Z,66.90
2023-04-04T03:47:39.064Z,67.00
2023-04-04T03:50:06.506Z,67.10
2023-04-04T03:52:39.055Z,67.10
2023-04-04T03:55:07.680Z,66.50
2023-04-04T03:57:34.824Z,66.70
2023-04-04T04:00:04.655Z,66.60
2023-04-04T04:02:39.423Z,66.30
2023-04-04T04:05:07.660Z,66.10
2023-04-04T04:07:34.709Z,66.10
2023-04-04T04:10:01.839Z,66.10
2023-04-04T04:12:28.885Z,65.40
2023-04-04T04:14:55.820Z,65.50
2023-04-04T04:17:23.027Z,65.30
2023-04-04T04:19:50.100Z,65.00
2023-04-04T04:22:17.898Z,64.80
2023-04-04T04:24:45.100Z,64.20
2023-04-04T04:27:12.396Z,63.60
2023-04-04T04:29:39.383Z,64.20
2023-04-04T04:32:06.691Z,64.30
2023-04-04T04:34:38.162Z,64.50
2023-04-04T04:37:05.317Z,64.70
2023-04-04T04:39:41.344Z,64.80
2023-04-04T04:42:24.125Z,65.10
2023-04-04T04:44:56.656Z,64.90
2023-04-04T04:47:24.521Z,65.10
2023-04-04T04:49:52.245Z,65.30
2023-04-04T04:52:26.414Z,64.70
2023-04-04T04:54:55.815Z,65.00
2023-04-04T04:57:23.595Z,64.50
2023-04-04T04:59:51.336Z,64.60
2023-04-04T05:02:19.437Z,64.70
2023-04-04T05:04:47.387Z,64.80
2023-04-04T05:07:17.084Z,65.30
2023-04-04T05:09:46.144Z,65.50
2023-04-04T05:12:14.131Z,65.90
2023-04-04T05:14:45.770Z,65.90
2023-04-04T05:17:13.136Z,66.00
2023-04-04T05:19:40.640Z,65.80
2023-04-04T05:22:08.320Z,64.60
2023-04-04T05:24:43.239Z,63.80
2023-04-04T05:27:14.099Z,63.30
2023-04-04T05:29:47.613Z,63.70
2023-04-04T05:32:15.971Z,63.20
2023-04-04T05:34:49.506Z,63.40
2023-04-04T05:37:19.327Z,62.90
2023-04-04T05:39:49.098Z,63.00
2023-04-04T05:42:17.733Z,63.10
2023-04-04T05:44:49.703Z,62.80
2023-04-04T05:47:16.889Z,61.90
2023-04-04T05:49:46.774Z,61.90
2023-04-04T05:52:13.826Z,62.40
2023-04-04T05:54:41.585Z,62.70
2023-04-04T05:57:14.934Z,62.50
2023-04-04T05:59:50.456Z,61.90
2023-04-04T06:02:17.624Z,61.20
2023-04-04T06:04:54.533Z,61.60
2023-04-04T06:07:30.602Z,61.90
2023-04-04T06:09:57.602Z,60.80
2023-04-04T06:12:25.124Z,61.30
2023-04-04T06:14:52.568Z,60.80
2023-04-04T06:17:21.954Z,58.70
2023-04-04T06:19:48.866Z,57.10
2023-04-04T06:22:17.842Z,56.90
2023-04-04T06:24:48.875Z,57.20
2023-04-04T06:27:16.382Z,57.40
2023-04-04T06:29:44.496Z,57.90
2023-04-04T06:32:13.217Z,58.60
2023-04-04T06:34:42.125Z,59.00
2023-04-04T06:37:10.500Z,59.70
2023-04-04T06:39:55.084Z,59.30
2023-04-04T06:42:25.961Z,58.30
2023-04-04T06:44:53.689Z,59.00
2023-04-04T06:47:21.428Z,59.50
2023-04-04T06:49:48.504Z,59.70
2023-04-04T06:52:15.500Z,59.70
2023-04-04T06:54:42.670Z,59.80
2023-04-04T06:57:09.737Z,58.80
2023-04-04T06:59:36.714Z,57.90
2023-04-04T07:02:03.639Z,57.10
2023-04-04T07:04:34.842Z,57.30
2023-04-04T07:07:01.994Z,57.50
2023-04-04T07:09:29.707Z,57.60
2023-04-04T07:11:56.938Z,55.80
2023-04-04T07:14:25.439Z,57.30
2023-04-04T07:16:53.245Z,57.00
2023-04-04T07:19:20.506Z,56.70
2023-04-04T07:21:47.398Z,55.60
2023-04-04T07:24:14.492Z,55.10
2023-04-04T07:26:41.760Z,55.20
2023-04-04T07:29:08.830Z,55.10
2023-04-04T07:31:35.927Z,55.60
2023-04-04T07:34:03.614Z,56.20
2023-04-04T07:36:30.716Z,55.90
2023-04-04T07:38:58.012Z,55.10
2023-04-04T07:41:25.933Z,54.80
2023-04-04T07:43:52.893Z,53.70
2023-04-04T07:46:20.485Z,52.70
2023-04-04T07:48:47.613Z,53.30
2023-04-04T07:51:15.486Z,53.60
2023-04-04T07:53:42.343Z,52.70
2023-04-04T07:56:09.342Z,50.40
2023-04-04T07:58:36.680Z,51.80
2023-04-04T08:01:04.009Z,49.80
2023-04-04T08:03:31.459Z,50.10
2023-04-04T08:05:58.497Z,49.50
2023-04-04T08:08:25.399Z,48.30
2023-04-04T08:10:52.433Z,49.90
2023-04-04T08:13:19.336Z,49.80
2023-04-04T08:15:46.362Z,49.90
2023-04-04T08:18:13.708Z,49.70
2023-04-04T08:20:40.976Z,49.50
2023-04-04T08:23:08.065Z,49.40
2023-04-04T08:25:35.232Z,49.20
2023-04-04T08:28:05.281Z,49.30
2023-04-04T08:30:32.475Z,47.70
2023-04-04T08:32:59.549Z,46.50
2023-04-04T08:35:26.739Z,46.60
2023-04-04T08:37:53.678Z,46.50
2023-04-04T08:40:20.978Z,45.20
2023-04-04T08:42:50.475Z,44.10
2023-04-04T08:45:19.384Z,45.20
2023-04-04T08:47:48.649Z,42.90
2023-04-04T08:50:16.044Z,45.50
2023-04-04T08:52:44.847Z,45.00
2023-04-04T08:55:12.723Z,42.40
2023-04-04T08:57:39.841Z,43.10
2023-04-04T09:00:07.678Z,43.50
2023-04-04T09:02:42.964Z,40.20
2023-04-04T09:05:10.989Z,38.10
2023-04-04T09:07:39.638Z,41.90
2023-04-04T09:10:10.717Z,42.30
2023-04-04T09:12:45.567Z,43.40
2023-04-04T09:15:12.751Z,40.70
2023-04-04T09:17:40.143Z,39.70
2023-04-04T09:20:35.302Z,39.70
2023-04-04T09:23:05.368Z,41.20
2023-04-04T09:25:32.644Z,41.60
2023-04-04T09:28:01.980Z,41.70
2023-04-04T09:30:29.607Z,43.20
2023-04-04T09:32:57.836Z,41.90
2023-04-04T09:35:27.474Z,40.70
2023-04-04T09:37:54.470Z,42.00
2023-04-04T09:40:23.985Z,40.70
2023-04-04T09:42:51.124Z,39.50
2023-04-04T09:45:29.322Z,38.70
2023-04-04T09:47:59.724Z,38.60
2023-04-04T09:50:30.338Z,39.60
2023-04-04T09:52:59.501Z,41.70
2023-04-04T09:55:37.753Z,40.80
2023-04-04T09:58:19.464Z,42.00
2023-04-04T10:00:48.483Z,42.40
2023-04-04T10:03:16.249Z,41.00
2023-04-04T10:05:45.871Z,39.80
2023-04-04T10:08:22.067Z,39.30
2023-04-04T10:11:02.616Z,38.80
2023-04-04T10:13:42.346Z,38.70
2023-04-04T10:16:11.061Z,36.30
2023-04-04T10:18:39.333Z,35.80
2023-04-04T10:23:41.362Z,40.10
2023-04-04T10:26:08.275Z,40.20
2023-04-04T10:28:35.333Z,37.20
2023-04-04T10:31:15.627Z,36.60
2023-04-04T10:34:14.138Z,37.00
2023-04-04T10:36:53.980Z,36.30
2023-04-04T10:39:27.542Z,40.50
2023-04-04T10:41:56.538Z,40.60
2023-04-04T10:44:34.156Z,40.80
2023-04-04T10:47:13.384Z,40.60
2023-04-04T10:49:43.463Z,38.60
2023-04-04T10:52:12.245Z,39.20
2023-04-04T10:54:40.398Z,38.70
2023-04-04T10:57:07.718Z,37.80
2023-04-04T10:59:34.769Z,36.60
2023-04-04T11:02:03.149Z,37.00
2023-04-04T11:04:35.369Z,38.80
2023-04-04T11:07:08.874Z,37.80
2023-04-04T11:09:56.114Z,39.00
2023-04-04T11:12:36.371Z,36.10
2023-04-04T11:15:03.758Z,39.60
2023-04-04T11:17:49.136Z,40.80
2023-04-04T11:20:37.825Z,40.20
2023-04-04T11:23:09.107Z,38.40
2023-04-04T11:25:38.385Z,34.80
2023-04-04T11:28:07.514Z,37.90
2023-04-04T11:30:48.991Z,37.10
2023-04-04T11:33:30.762Z,35.10
2023-04-04T11:36:08.219Z,36.20
2023-04-04T11:38:40.119Z,38.70
2023-04-04T11:41:08.018Z,40.00
2023-04-04T11:43:44.482Z,38.70
2023-04-04T11:46:17.090Z,36.60
2023-04-04T11:48:44.612Z,39.20
2023-04-04T11:51:11.819Z,38.90
2023-04-04T11:53:42.804Z,38.20
2023-04-04T11:56:15.582Z,39.20
2023-04-04T11:58:50.550Z,36.80
2023-04-04T12:01:20.564Z,39.20
2023-04-04T12:03:49.049Z,39.30
2023-04-04T12:06:17.096Z,39.30
2023-04-04T12:08:44.488Z,39.20
2023-04-04T12:11:16.064Z,39.10
2023-04-04T12:13:46.590Z,36.30
2023-04-04T12:16:13.555Z,38.10
2023-04-04T12:18:40.563Z,38.90
2023-04-04T12:21:07.647Z,38.50
2023-04-04T12:23:35.203Z,38.00
2023-04-04T12:26:05.539Z,38.90
2023-04-04T12:28:34.279Z,39.60
2023-04-04T12:31:08.230Z,38.90
2023-04-04T12:33:36.586Z,40.20
2023-04-04T12:36:03.849Z,38.70
2023-04-04T12:38:31.433Z,39.40
2023-04-04T12:40:59.198Z,39.40
2023-04-04T12:43:30.245Z,39.60
2023-04-04T12:45:58.052Z,37.00
2023-04-04T12:48:30.008Z,38.90
2023-04-04T12:50:58.941Z,39.50
2023-04-04T12:53:29.346Z,37.40
2023-04-04T12:56:02.418Z,38.50
2023-04-04T12:58:29.901Z,37.70
2023-04-04T13:01:00.629Z,36.70
2023-04-04T13:03:28.728Z,36.70
2023-04-04T13:05:55.846Z,39.10
2023-04-04T13:08:22.923Z,40.60
2023-04-04T13:10:56.713Z,39.70
2023-04-04T13:13:37.594Z,40.80
2023-04-04T13:16:09.817Z,37.40
2023-04-04T13:18:39.378Z,37.70
2023-04-04T13:21:10.094Z,37.50
2023-04-04T13:23:39.754Z,38.10
2023-04-04T13:26:10.925Z,39.30
2023-04-04T13:28:38.109Z,40.10
2023-04-04T13:31:07.452Z,38.40
2023-04-04T13:33:35.225Z,38.20
2023-04-04T13:36:02.261Z,38.00
2023-04-04T13:38:30.453Z,37.90
2023-04-04T13:41:00.966Z,39.00
2023-04-04T13:43:27.986Z,38.60
2023-04-04T13:45:55.984Z,37.00
2023-04-04T13:48:23.383Z,36.60
2023-04-04T13:50:55.221Z,37.80
2023-04-04T13:53:22.728Z,39.90
2023-04-04T13:56:07.678Z,40.00
2023-04-04T13:58:36.635Z,39.80
2023-04-04T14:01:10.013Z,39.70
2023-04-04T14:03:37.313Z,40.00
2023-04-04T14:06:10.450Z,39.50
2023-04-04T14:08:38.270Z,36.90
2023-04-04T14:11:05.263Z,36.90
2023-04-04T14:13:33.111Z,38.30
2023-04-04T14:16:00.058Z,39.60
2023-04-04T14:18:27.324Z,40.00
2023-04-04T14:20:54.336Z,39.10
2023-04-04T14:23:22.145Z,38.00
2023-04-04T14:25:50.893Z,37.60
2023-04-04T14:28:17.844Z,36.10
2023-04-04T14:30:44.830Z,37.20
2023-04-04T14:33:11.810Z,38.60
2023-04-04T14:35:39.123Z,38.90
2023-04-04T14:38:06.570Z,38.40
2023-04-04T14:40:33.474Z,38.20
2023-04-04T14:43:00.388Z,38.90
2023-04-04T14:45:28.639Z,39.50
2023-04-04T14:47:55.615Z,36.80
2023-04-04T14:50:22.549Z,37.50
2023-04-04T14:52:52.796Z,39.00
2023-04-04T14:55:20.826Z,36.50
2023-04-04T14:58:02.120Z,37.60
2023-04-04T15:00:30.918Z,38.70
2023-04-04T15:02:57.940Z,39.00
2023-04-04T15:05:25.566Z,38.90
2023-04-04T15:07:52.537Z,38.40
2023-04-04T15:10:19.556Z,38.90
2023-04-04T15:12:46.393Z,39.30
2023-04-04T15:15:13.688Z,37.90
2023-04-04T15:17:41.602Z,38.60
2023-04-04T15:20:09.586Z,38.10
2023-04-04T15:22:38.552Z,38.80
2023-04-04T15:25:06.406Z,38.20
2023-04-04T15:27:33.259Z,37.50
2023-04-04T15:30:00.520Z,36.20
2023-04-04T15:32:27.600Z,37.40
2023-04-04T15:34:55.591Z,36.30
2023-04-04T15:37:22.486Z,38.00
2023-04-04T15:39:53.630Z,39.50
2023-04-04T15:42:21.181Z,37.70
2023-04-04T15:44:48.203Z,38.80
2023-04-04T15:47:16.976Z,38.00
2023-04-04T15:49:43.888Z,39.60
2023-04-04T15:52:11.020Z,40.30
2023-04-04T15:54:37.956Z,39.10
2023-04-04T15:57:04.906Z,39.60
2023-04-04T15:59:32.195Z,39.60
2023-04-04T16:01:59.763Z,37.20
2023-04-04T16:04:26.742Z,37.20
2023-04-04T16:06:53.755Z,38.10
2023-04-04T16:09:21.439Z,38.90
2023-04-04T16:11:48.574Z,38.70
2023-04-04T16:14:15.835Z,39.10
2023-04-04T16:16:42.877Z,39.00
2023-04-04T16:19:10.242Z,38.70
2023-04-04T16:21:38.028Z,39.10
2023-04-04T16:24:05.290Z,37.60
2023-04-04T16:26:32.307Z,37.40
2023-04-04T16:28:59.380Z,37.00
2023-04-04T16:31:26.558Z,38.30
2023-04-04T16:33:53.566Z,39.00
2023-04-04T16:36:20.812Z,39.80
2023-04-04T16:38:47.742Z,41.50
2023-04-04T16:41:15.761Z,42.10
2023-04-04T16:43:49.672Z,42.80
2023-04-04T16:46:16.612Z,42.70
2023-04-04T16:48:43.513Z,42.70
2023-04-04T16:51:11.463Z,42.90
2023-04-04T16:53:38.996Z,43.20
2023-04-04T16:56:06.081Z,44.30
2023-04-04T16:58:33.014Z,44.00
2023-04-04T17:00:59.953Z,44.10
2023-04-04T17:03:26.849Z,44.60
2023-04-04T17:05:59.609Z,44.50
2023-04-04T17:08:26.801Z,44.40
2023-04-04T17:10:53.831Z,44.60
2023-04-04T17:13:21.097Z,44.90
2023-04-04T17:15:47.925Z,45.10
2023-04-04T17:18:14.903Z,45.50
2023-04-04T17:20:43.634Z,45.70
2023-04-04T17:23:10.997Z,46.10
2023-04-04T17:25:37.889Z,46.50
2023-04-04T17:28:05.313Z,46.80
2023-04-04T17:30:32.483Z,47.30
2023-04-04T17:32:59.487Z,48.00
2023-04-04T17:35:27.553Z,48.40
2023-04-04T17:37:54.583Z,49.10
2023-04-04T17:40:21.687Z,49.80
2023-04-04T17:42:48.756Z,50.70
2023-04-04T17:45:16.253Z,51.30
2023-04-04T17:47:43.261Z,51.90
2023-04-04T17:50:11.075Z,52.30
2023-04-04T17:52:38.059Z,52.60
2023-04-04T17:55:05.256Z,52.90
2023-04-04T17:57:33.032Z,53.30
2023-04-04T17:59:59.905Z,53.50
2023-04-04T18:02:27.263Z,54.20
2023-04-04T18:04:54.402Z,55.00
2023-04-04T18:07:21.938Z,55.20
2023-04-04T18:09:48.818Z,55.20
2023-04-04T18:12:16.078Z,55.60
2023-04-04T18:14:42.964Z,55.80
2023-04-04T18:17:10.829Z,56.20
2023-04-04T18:19:39.107Z,56.50
2023-04-04T18:22:07.175Z,57.00
2023-04-04T18:24:34.029Z,57.10
2023-04-04T18:27:01.043Z,57.30
2023-04-04T18:29:30.721Z,56.90
2023-04-04T18:32:03.853Z,56.80
2023-04-04T18:34:31.075Z,57.30
2023-04-04T18:36:57.946Z,58.00
2023-04-04T18:39:25.061Z,58.50
2023-04-04T18:41:52.145Z,58.90
2023-04-04T18:44:19.253Z,59.20
2023-04-04T18:46:46.279Z,59.20
2023-04-04T18:49:13.229Z,59.00
2023-04-04T18:51:40.135Z,58.70
2023-04-04T18:54:07.384Z,58.30
2023-04-04T18:56:34.203Z,58.40
2023-04-04T18:59:01.225Z,58.30
2023-04-04T19:01:28.827Z,58.10
2023-04-04T19:03:56.902Z,58.00
2023-04-04T19:06:29.295Z,58.00
2023-04-04T19:08:58.505Z,59.10
2023-04-04T19:11:25.496Z,58.70
2023-04-04T19:13:52.782Z,58.90
2023-04-04T19:16:19.765Z,58.90
2023-04-04T19:18:46.789Z,58.70
2023-04-04T19:21:13.884Z,58.70
2023-04-04T19:23:40.977Z,59.00
2023-04-04T19:26:08.145Z,59.10
2023-04-04T19:28:35.344Z,59.50
2023-04-04T19:31:04.506Z,59.70
2023-04-04T19:33:33.309Z,60.00
2023-04-04T19:36:08.634Z,60.60
2023-04-04T19:38:40.469Z,60.80
2023-04-04T19:41:16.762Z,60.90
2023-04-04T19:43:47.062Z,61.60
2023-04-04T19:46:28.525Z,62.10
2023-04-04T19:48:57.050Z,62.40
2023-04-04T19:51:23.856Z,62.90
2023-04-04T19:53:53.520Z,63.30
2023-04-04T19:56:22.637Z,63.60
2023-04-04T19:59:05.314Z,63.90
2023-04-04T20:01:34.910Z,64.10
2023-04-04T20:04:11.306Z,63.60
2023-04-04T20:06:38.856Z,63.10
2023-04-04T20:09:24.194Z,63.10
2023-04-04T20:11:51.223Z,63.30
2023-04-04T20:14:23.950Z,63.40
2023-04-04T20:16:52.402Z,63.40
2023-04-04T20:19:20.833Z,64.30
2023-04-04T20:21:48.829Z,63.80
2023-04-04T20:24:17.776Z,63.70
2023-04-04T20:27:03.905Z,64.00
2023-04-04T20:29:33.326Z,64.40
2023-04-04T20:32:18.456Z,64.70
2023-04-04T20:34:46.819Z,65.60
2023-04-04T20:37:22.699Z,65.80
2023-04-04T20:40:00.749Z,66.10
2023-04-04T20:42:32.223Z,66.60
2023-04-04T20:45:33.034Z,67.10
2023-04-04T20:48:06.762Z,67.50
2023-04-04T20:50:34.554Z,67.90
2023-04-04T20:53:03.672Z,68.30
2023-04-04T20:55:33.196Z,68.50
2023-04-04T20:58:12.290Z,68.60
2023-04-04T21:00:41.451Z,68.70
2023-04-04T21:03:26.897Z,68.80
2023-04-04T21:05:58.284Z,68.80
2023-04-04T21:08:38.789Z,69.00
2023-04-04T21:11:06.890Z,69.70
2023-04-04T21:13:43.846Z,70.00
2023-04-04T21:16:13.765Z,70.10
2023-04-04T21:18:41.685Z,70.30
2023-04-04T21:21:19.333Z,70.30
2023-04-04T21:23:53.030Z,70.30
2023-04-04T21:26:34.749Z,70.20
2023-04-04T21:29:20.614Z,70.40
2023-04-04T21:31:48.940Z,70.40
2023-04-04T21:34:18.455Z,70.50
2023-04-04T21:36:46.640Z,70.60
2023-04-04T21:39:20.821Z,70.70
2023-04-04T21:41:52.922Z,70.70
2023-04-04T21:44:20.221Z,70.50
2023-04-04T21:46:47.299Z,70.50
2023-04-04T21:49:14.464Z,70.80
2023-04-04T21:51:41.504Z,70.90
2023-04-04T21:54:08.662Z,71.00
2023-04-04T21:56:35.648Z,71.10
2023-04-04T21:59:05.556Z,71.00
2023-04-04T22:01:32.616Z,70.50
2023-04-04T22:04:00.005Z,70.10
2023-04-04T22:06:27.644Z,69.80
2023-04-04T22:08:56.404Z,69.60
2023-04-04T22:11:25.999Z,69.40
2023-04-04T22:14:03.383Z,69.30
2023-04-04T22:16:31.888Z,69.50
2023-04-04T22:19:01.292Z,69.50
2023-04-04T22:21:28.979Z,69.40
2023-04-04T22:24:02.535Z,69.70
2023-04-04T22:26:32.712Z,69.60
2023-04-04T22:29:02.878Z,69.00
2023-04-04T22:31:30.805Z,68.70
2023-04-04T22:33:58.003Z,68.20
2023-04-04T22:36:25.419Z,67.80
2023-04-04T22:38:56.832Z,67.40
2023-04-04T22:41:30.281Z,67.30
2023-04-04T22:43:57.974Z,67.20
2023-04-04T22:46:26.297Z,67.00
2023-04-04T22:49:05.715Z,66.80
2023-04-04T22:51:45.456Z,66.80
2023-04-04T22:54:14.882Z,66.90
2023-04-04T22:56:41.954Z,67.70
2023-04-04T22:59:09.127Z,68.00
2023-04-04T23:01:36.105Z,68.10
2023-04-04T23:04:03.166Z,68.40
2023-04-04T23:06:31.313Z,69.00
2023-04-04T23:08:59.069Z,69.90
2023-04-04T23:11:27.252Z,69.60
2023-04-04T23:13:54.402Z,69.40
2023-04-04T23:16:23.586Z,69.20
2023-04-04T23:18:51.428Z,69.20
2023-04-04T23:21:18.332Z,69.00
2023-04-04T23:23:45.481Z,68.90
2023-04-04T23:26:13.541Z,69.00
2023-04-04T23:28:40.452Z,68.90
2023-04-04T23:31:07.703Z,68.90
2023-04-04T23:33:34.692Z,69.50
2023-04-04T23:36:01.589Z,70.20
2023-04-04T23:38:28.684Z,70.80
2023-04-04T23:40:55.584Z,71.00
2023-04-04T23:43:22.585Z,71.00
2023-04-04T23:45:49.664Z,71.20
2023-04-04T23:48:16.608Z,71.40
2023-04-04T23:50:44.284Z,71.20
2023-04-04T23:53:12.122Z,70.70
2023-04-04T23:55:38.991Z,70.20
2023-04-04T23:58:06.165Z,69.80
